CheckWX is a tool to help pilots better visualize weather data.  It is not intended as a substitute for an official pre-flight weather briefing.

09:46:09 UTC

KEUL METAR
Caldwell Industrial Airport
Caldwell, Idaho, USA
Current

50 mins ago

KEUL 310856Z AUTO 26010KT 10SM -RA OVC100 17/11 A2983 RMK AO2 LTG DSNT N AND SE TSB31E46RAB14 SLP077 P0001 60001 T01720111 53047
Observed
May-31 @ 08:56 UTC
Wind
  • 260° at 10 KTS
Visibility
Flight Rules
VFR
Conditions
Light Rain
Cloud Levels
  • Overcast at 10,000' AGL
Temperature
17°C / 63°F
Dewpoint
11°C / 52°F
Humidity
68%
Altimeter
29.83" Hg
Pressure
1010.12 hPa
Current Rain
0.01"
Previous

1 hour ago

KEUL 310842Z AUTO 24006KT 10SM VCTS RA FEW085 BKN100 17/11 A2983 RMK AO2 LTG DSNT N AND SE AND NW TSB31RAB14 P0001
Observed
May-31 @ 08:42 UTC
Wind
  • 240° at 6 KTS
Visibility
Flight Rules
VFR
Conditions
Area Thunderstorm, Rain
Cloud Levels
  • Few at 8,500' AGL
  • Broken at 10,000' AGL
Temperature
17°C / 63°F
Dewpoint
11°C / 52°F
Humidity
68%
Altimeter
29.83" Hg
Pressure
1010.12 hPa
Current Rain
0.01"
Previous

2 hours ago

KEUL 310756Z AUTO 24011KT 10SM BKN100 21/09 A2975 RMK AO2 LTG DSNT W SLP047 T02060089
Observed
May-31 @ 07:56 UTC
Wind
  • 240° at 11 KTS
Visibility
Flight Rules
VFR
Cloud Levels
  • Broken at 10,000' AGL
Temperature
21°C / 70°F
Dewpoint
C / 48°F
Humidity
46%
Altimeter
29.75" Hg
Pressure
1007.42 hPa